sensor_id;sensor_type;location;lat;lon;timestamp;P1;durP1;ratioP1;P2;durP2;ratioP2
75837;SDS011;64480;52.040;113.502;2023-04-25T00:01:26;58.97;;;20.90;;
75837;SDS011;64480;52.040;113.502;2023-04-25T00:04:29;49.25;;;20.35;;
75837;SDS011;64480;52.040;113.502;2023-04-25T00:07:36;38.63;;;16.38;;
75837;SDS011;64480;52.040;113.502;2023-04-25T00:10:39;52.35;;;19.23;;
75837;SDS011;64480;52.040;113.502;2023-04-25T00:13:42;49.15;;;18.00;;
75837;SDS011;64480;52.040;113.502;2023-04-25T00:16:46;42.92;;;17.85;;
75837;SDS011;64480;52.040;113.502;2023-04-25T00:19:50;44.20;;;17.50;;
75837;SDS011;64480;52.040;113.502;2023-04-25T00:22:54;53.72;;;18.92;;
75837;SDS011;64480;52.040;113.502;2023-04-25T00:25:58;39.47;;;18.75;;
75837;SDS011;64480;52.040;113.502;2023-04-25T00:29:01;50.78;;;20.52;;
75837;SDS011;64480;52.040;113.502;2023-04-25T00:32:05;46.25;;;19.60;;
75837;SDS011;64480;52.040;113.502;2023-04-25T00:35:09;45.28;;;19.38;;
75837;SDS011;64480;52.040;113.502;2023-04-25T00:38:12;39.55;;;18.50;;
75837;SDS011;64480;52.040;113.502;2023-04-25T00:41:16;47.03;;;18.08;;
75837;SDS011;64480;52.040;113.502;2023-04-25T00:44:20;54.88;;;23.88;;
75837;SDS011;64480;52.040;113.502;2023-04-25T00:47:25;49.25;;;18.88;;
75837;SDS011;64480;52.040;113.502;2023-04-25T00:50:28;37.08;;;15.70;;
75837;SDS011;64480;52.040;113.502;2023-04-25T00:53:32;49.65;;;17.50;;
75837;SDS011;64480;52.040;113.502;2023-04-25T00:56:35;59.90;;;18.92;;
75837;SDS011;64480;52.040;113.502;2023-04-25T00:59:39;48.15;;;18.55;;
75837;SDS011;64480;52.040;113.502;2023-04-25T01:02:48;47.88;;;17.75;;
75837;SDS011;64480;52.040;113.502;2023-04-25T01:05:53;51.92;;;16.75;;
75837;SDS011;64480;52.040;113.502;2023-04-25T01:08:57;50.05;;;17.23;;
75837;SDS011;64480;52.040;113.502;2023-04-25T01:12:02;50.20;;;16.20;;
75837;SDS011;64480;52.040;113.502;2023-04-25T01:15:06;36.70;;;14.20;;
75837;SDS011;64480;52.040;113.502;2023-04-25T01:18:09;39.35;;;14.38;;
75837;SDS011;64480;52.040;113.502;2023-04-25T01:21:13;49.13;;;14.20;;
75837;SDS011;64480;52.040;113.502;2023-04-25T01:24:18;52.08;;;15.68;;
75837;SDS011;64480;52.040;113.502;2023-04-25T01:27:22;41.50;;;16.00;;
75837;SDS011;64480;52.040;113.502;2023-04-25T01:30:26;45.63;;;15.68;;
75837;SDS011;64480;52.040;113.502;2023-04-25T01:33:30;32.72;;;14.05;;
75837;SDS011;64480;52.040;113.502;2023-04-25T01:36:34;39.63;;;13.25;;
75837;SDS011;64480;52.040;113.502;2023-04-25T01:39:38;46.80;;;15.23;;
75837;SDS011;64480;52.040;113.502;2023-04-25T01:42:42;47.13;;;17.38;;
75837;SDS011;64480;52.040;113.502;2023-04-25T01:45:48;37.42;;;12.18;;
75837;SDS011;64480;52.040;113.502;2023-04-25T01:48:53;54.20;;;15.02;;
75837;SDS011;64480;52.040;113.502;2023-04-25T01:51:57;37.35;;;14.25;;
75837;SDS011;64480;52.040;113.502;2023-04-25T01:55:01;32.92;;;11.98;;
75837;SDS011;64480;52.040;113.502;2023-04-25T01:58:07;40.13;;;14.73;;
75837;SDS011;64480;52.040;113.502;2023-04-25T02:01:35;29.30;;;13.30;;
75837;SDS011;64480;52.040;113.502;2023-04-25T02:04:50;33.85;;;12.55;;
75837;SDS011;64480;52.040;113.502;2023-04-25T02:07:55;42.40;;;11.70;;
75837;SDS011;64480;52.040;113.502;2023-04-25T02:11:00;39.40;;;11.18;;
75837;SDS011;64480;52.040;113.502;2023-04-25T02:14:12;22.75;;;7.97;;
75837;SDS011;64480;52.040;113.502;2023-04-25T02:17:22;26.25;;;8.95;;
75837;SDS011;64480;52.040;113.502;2023-04-25T02:20:26;30.48;;;12.15;;
75837;SDS011;64480;52.040;113.502;2023-04-25T02:23:30;33.38;;;10.48;;
75837;SDS011;64480;52.040;113.502;2023-04-25T02:26:34;33.28;;;10.95;;
75837;SDS011;64480;52.040;113.502;2023-04-25T02:29:41;41.08;;;12.93;;
75837;SDS011;64480;52.040;113.502;2023-04-25T02:32:45;34.22;;;11.70;;
75837;SDS011;64480;52.040;113.502;2023-04-25T02:35:49;36.45;;;11.98;;
75837;SDS011;64480;52.040;113.502;2023-04-25T02:38:56;37.00;;;12.77;;
75837;SDS011;64480;52.040;113.502;2023-04-25T02:41:59;30.35;;;11.20;;
75837;SDS011;64480;52.040;113.502;2023-04-25T02:45:04;36.85;;;11.90;;
75837;SDS011;64480;52.040;113.502;2023-04-25T02:48:08;27.70;;;10.45;;
75837;SDS011;64480;52.040;113.502;2023-04-25T02:51:12;35.97;;;9.55;;
75837;SDS011;64480;52.040;113.502;2023-04-25T02:54:16;26.70;;;9.82;;
75837;SDS011;64480;52.040;113.502;2023-04-25T02:57:22;22.25;;;10.98;;
75837;SDS011;64480;52.040;113.502;2023-04-25T03:00:25;35.63;;;8.32;;
75837;SDS011;64480;52.040;113.502;2023-04-25T03:03:29;27.42;;;9.30;;
75837;SDS011;64480;52.040;113.502;2023-04-25T03:06:32;20.63;;;7.60;;
75837;SDS011;64480;52.040;113.502;2023-04-25T03:09:35;17.80;;;8.52;;
75837;SDS011;64480;52.040;113.502;2023-04-25T03:12:39;24.33;;;8.52;;
75837;SDS011;64480;52.040;113.502;2023-04-25T03:15:43;27.85;;;9.43;;
75837;SDS011;64480;52.040;113.502;2023-04-25T03:18:46;17.27;;;6.55;;
75837;SDS011;64480;52.040;113.502;2023-04-25T03:21:50;16.38;;;5.80;;
75837;SDS011;64480;52.040;113.502;2023-04-25T03:24:53;18.63;;;5.43;;
75837;SDS011;64480;52.040;113.502;2023-04-25T03:27:57;14.05;;;4.72;;
75837;SDS011;64480;52.040;113.502;2023-04-25T03:31:00;14.05;;;5.25;;
75837;SDS011;64480;52.040;113.502;2023-04-25T03:34:04;12.95;;;4.30;;
75837;SDS011;64480;52.040;113.502;2023-04-25T03:37:07;17.20;;;3.22;;
75837;SDS011;64480;52.040;113.502;2023-04-25T03:40:12;2.92;;;2.10;;
75837;SDS011;64480;52.040;113.502;2023-04-25T03:43:38;5.75;;;2.08;;
75837;SDS011;64480;52.040;113.502;2023-04-25T03:46:45;2.92;;;1.80;;
75837;SDS011;64480;52.040;113.502;2023-04-25T03:49:49;12.02;;;3.70;;
75837;SDS011;64480;52.040;113.502;2023-04-25T03:52:56;9.80;;;1.70;;
75837;SDS011;64480;52.040;113.502;2023-04-25T03:56:04;2.97;;;1.70;;
75837;SDS011;64480;52.040;113.502;2023-04-25T03:59:11;9.02;;;4.57;;
75837;SDS011;64480;52.040;113.502;2023-04-25T04:02:14;21.23;;;4.95;;
75837;SDS011;64480;52.040;113.502;2023-04-25T04:05:18;11.27;;;4.45;;
75837;SDS011;64480;52.040;113.502;2023-04-25T04:08:27;10.35;;;2.72;;
75837;SDS011;64480;52.040;113.502;2023-04-25T04:11:30;8.68;;;1.90;;
75837;SDS011;64480;52.040;113.502;2023-04-25T04:14:34;6.13;;;3.20;;
75837;SDS011;64480;52.040;113.502;2023-04-25T04:17:38;8.32;;;2.00;;
75837;SDS011;64480;52.040;113.502;2023-04-25T04:20:42;19.65;;;4.50;;
75837;SDS011;64480;52.040;113.502;2023-04-25T04:23:46;15.48;;;2.75;;
75837;SDS011;64480;52.040;113.502;2023-04-25T04:26:51;8.32;;;2.97;;
75837;SDS011;64480;52.040;113.502;2023-04-25T04:30:10;11.93;;;2.70;;
75837;SDS011;64480;52.040;113.502;2023-04-25T04:33:27;13.63;;;2.30;;
75837;SDS011;64480;52.040;113.502;2023-04-25T04:36:34;7.82;;;4.38;;
75837;SDS011;64480;52.040;113.502;2023-04-25T04:39:37;11.70;;;3.28;;
75837;SDS011;64480;52.040;113.502;2023-04-25T04:42:53;5.82;;;1.80;;
75837;SDS011;64480;52.040;113.502;2023-04-25T04:46:27;10.27;;;4.30;;
75837;SDS011;64480;52.040;113.502;2023-04-25T04:49:57;10.80;;;3.67;;
75837;SDS011;64480;52.040;113.502;2023-04-25T04:53:46;4.47;;;1.58;;
75837;SDS011;64480;52.040;113.502;2023-04-25T04:57:17;7.53;;;1.50;;
75837;SDS011;64480;52.040;113.502;2023-04-25T05:00:36;3.95;;;1.30;;
75837;SDS011;64480;52.040;113.502;2023-04-25T05:04:05;11.00;;;1.70;;
75837;SDS011;64480;52.040;113.502;2023-04-25T05:07:35;7.82;;;2.00;;
75837;SDS011;64480;52.040;113.502;2023-04-25T05:10:59;13.20;;;2.10;;
75837;SDS011;64480;52.040;113.502;2023-04-25T05:14:14;11.07;;;2.45;;
75837;SDS011;64480;52.040;113.502;2023-04-25T05:17:38;35.55;;;4.30;;
75837;SDS011;64480;52.040;113.502;2023-04-25T05:21:00;22.42;;;4.38;;
75837;SDS011;64480;52.040;113.502;2023-04-25T05:24:22;9.00;;;1.50;;
75837;SDS011;64480;52.040;113.502;2023-04-25T05:27:44;9.82;;;2.50;;
75837;SDS011;64480;52.040;113.502;2023-04-25T05:31:10;5.22;;;1.65;;
75837;SDS011;64480;52.040;113.502;2023-04-25T05:34:23;4.80;;;1.67;;
75837;SDS011;64480;52.040;113.502;2023-04-25T05:37:33;13.65;;;6.05;;
75837;SDS011;64480;52.040;113.502;2023-04-25T05:40:44;11.40;;;2.90;;
75837;SDS011;64480;52.040;113.502;2023-04-25T05:44:20;4.10;;;1.73;;
75837;SDS011;64480;52.040;113.502;2023-04-25T05:47:45;8.32;;;2.00;;
75837;SDS011;64480;52.040;113.502;2023-04-25T05:50:53;17.63;;;3.08;;
75837;SDS011;64480;52.040;113.502;2023-04-25T05:54:15;7.63;;;2.40;;
75837;SDS011;64480;52.040;113.502;2023-04-25T05:57:26;21.25;;;2.67;;
75837;SDS011;64480;52.040;113.502;2023-04-25T06:00:30;9.05;;;1.80;;
75837;SDS011;64480;52.040;113.502;2023-04-25T06:03:34;7.78;;;1.77;;
75837;SDS011;64480;52.040;113.502;2023-04-25T06:06:38;11.98;;;2.40;;
75837;SDS011;64480;52.040;113.502;2023-04-25T06:09:44;4.97;;;1.70;;
75837;SDS011;64480;52.040;113.502;2023-04-25T06:12:49;4.70;;;2.08;;
75837;SDS011;64480;52.040;113.502;2023-04-25T06:15:54;4.55;;;1.33;;
75837;SDS011;64480;52.040;113.502;2023-04-25T06:18:58;9.07;;;2.05;;
75837;SDS011;64480;52.040;113.502;2023-04-25T06:22:01;12.82;;;3.58;;
75837;SDS011;64480;52.040;113.502;2023-04-25T06:25:06;7.43;;;2.53;;
75837;SDS011;64480;52.040;113.502;2023-04-25T06:28:17;16.10;;;1.92;;
75837;SDS011;64480;52.040;113.502;2023-04-25T06:31:23;10.98;;;1.98;;
75837;SDS011;64480;52.040;113.502;2023-04-25T06:34:28;3.45;;;1.50;;
75837;SDS011;64480;52.040;113.502;2023-04-25T06:37:33;9.60;;;2.08;;
75837;SDS011;64480;52.040;113.502;2023-04-25T06:40:37;9.07;;;2.22;;
75837;SDS011;64480;52.040;113.502;2023-04-25T06:43:42;8.32;;;1.90;;
75837;SDS011;64480;52.040;113.502;2023-04-25T06:47:07;6.38;;;1.30;;
75837;SDS011;64480;52.040;113.502;2023-04-25T06:50:12;11.32;;;2.05;;
75837;SDS011;64480;52.040;113.502;2023-04-25T06:53:16;13.85;;;3.03;;
75837;SDS011;64480;52.040;113.502;2023-04-25T06:56:22;3.25;;;1.60;;
75837;SDS011;64480;52.040;113.502;2023-04-25T06:59:33;5.72;;;1.60;;
75837;SDS011;64480;52.040;113.502;2023-04-25T07:02:38;6.63;;;1.33;;
75837;SDS011;64480;52.040;113.502;2023-04-25T07:05:43;5.15;;;2.78;;
75837;SDS011;64480;52.040;113.502;2023-04-25T07:08:48;4.15;;;1.85;;
75837;SDS011;64480;52.040;113.502;2023-04-25T07:11:52;4.22;;;2.35;;
75837;SDS011;64480;52.040;113.502;2023-04-25T07:14:55;9.98;;;2.33;;
75837;SDS011;64480;52.040;113.502;2023-04-25T07:18:01;15.35;;;2.63;;
75837;SDS011;64480;52.040;113.502;2023-04-25T07:21:04;11.65;;;2.30;;
75837;SDS011;64480;52.040;113.502;2023-04-25T07:24:10;8.15;;;1.75;;
75837;SDS011;64480;52.040;113.502;2023-04-25T07:27:18;6.35;;;1.50;;
75837;SDS011;64480;52.040;113.502;2023-04-25T07:30:48;4.03;;;1.30;;
75837;SDS011;64480;52.040;113.502;2023-04-25T07:33:51;21.25;;;9.32;;
75837;SDS011;64480;52.040;113.502;2023-04-25T07:36:55;8.68;;;2.05;;
75837;SDS011;64480;52.040;113.502;2023-04-25T07:40:10;5.88;;;1.67;;
75837;SDS011;64480;52.040;113.502;2023-04-25T07:43:36;9.18;;;2.45;;
75837;SDS011;64480;52.040;113.502;2023-04-25T07:46:40;8.65;;;2.00;;
75837;SDS011;64480;52.040;113.502;2023-04-25T07:49:43;13.68;;;3.33;;
75837;SDS011;64480;52.040;113.502;2023-04-25T07:52:48;4.13;;;1.25;;
75837;SDS011;64480;52.040;113.502;2023-04-25T07:55:58;6.22;;;2.15;;
75837;SDS011;64480;52.040;113.502;2023-04-25T07:59:05;12.35;;;2.10;;
75837;SDS011;64480;52.040;113.502;2023-04-25T08:02:09;4.00;;;1.27;;
75837;SDS011;64480;52.040;113.502;2023-04-25T08:05:13;5.03;;;1.60;;
75837;SDS011;64480;52.040;113.502;2023-04-25T08:08:26;4.55;;;1.98;;
75837;SDS011;64480;52.040;113.502;2023-04-25T08:11:29;5.97;;;1.67;;
75837;SDS011;64480;52.040;113.502;2023-04-25T08:14:34;16.17;;;2.63;;
75837;SDS011;64480;52.040;113.502;2023-04-25T08:17:43;21.35;;;2.58;;
75837;SDS011;64480;52.040;113.502;2023-04-25T08:20:47;9.30;;;2.17;;
75837;SDS011;64480;52.040;113.502;2023-04-25T08:23:54;7.55;;;1.83;;
75837;SDS011;64480;52.040;113.502;2023-04-25T08:27:04;7.57;;;1.73;;
75837;SDS011;64480;52.040;113.502;2023-04-25T08:30:12;12.60;;;2.05;;
75837;SDS011;64480;52.040;113.502;2023-04-25T08:33:17;20.20;;;3.08;;
75837;SDS011;64480;52.040;113.502;2023-04-25T08:36:31;13.68;;;2.63;;
75837;SDS011;64480;52.040;113.502;2023-04-25T08:40:01;16.10;;;2.20;;
75837;SDS011;64480;52.040;113.502;2023-04-25T08:43:19;6.25;;;2.08;;
75837;SDS011;64480;52.040;113.502;2023-04-25T08:46:23;5.95;;;1.70;;
75837;SDS011;64480;52.040;113.502;2023-04-25T08:49:50;5.40;;;1.92;;
75837;SDS011;64480;52.040;113.502;2023-04-25T08:52:56;5.03;;;1.40;;
75837;SDS011;64480;52.040;113.502;2023-04-25T08:56:05;6.55;;;1.40;;
75837;SDS011;64480;52.040;113.502;2023-04-25T08:59:11;5.85;;;1.98;;
75837;SDS011;64480;52.040;113.502;2023-04-25T09:02:17;13.43;;;3.08;;
75837;SDS011;64480;52.040;113.502;2023-04-25T09:05:25;13.57;;;2.75;;
75837;SDS011;64480;52.040;113.502;2023-04-25T09:08:28;6.20;;;2.30;;
75837;SDS011;64480;52.040;113.502;2023-04-25T09:11:33;12.73;;;3.25;;
75837;SDS011;64480;52.040;113.502;2023-04-25T09:14:42;11.00;;;2.10;;
75837;SDS011;64480;52.040;113.502;2023-04-25T09:18:24;12.73;;;2.65;;
75837;SDS011;64480;52.040;113.502;2023-04-25T09:21:34;12.18;;;2.60;;
75837;SDS011;64480;52.040;113.502;2023-04-25T09:24:39;17.60;;;5.75;;
75837;SDS011;64480;52.040;113.502;2023-04-25T09:27:50;10.43;;;2.20;;
75837;SDS011;64480;52.040;113.502;2023-04-25T09:31:00;18.83;;;2.50;;
75837;SDS011;64480;52.040;113.502;2023-04-25T09:34:11;8.48;;;2.47;;
75837;SDS011;64480;52.040;113.502;2023-04-25T09:37:26;14.88;;;6.80;;
75837;SDS011;64480;52.040;113.502;2023-04-25T09:41:03;29.17;;;4.55;;
75837;SDS011;64480;52.040;113.502;2023-04-25T09:44:22;17.08;;;2.42;;
75837;SDS011;64480;52.040;113.502;2023-04-25T09:47:28;14.35;;;2.90;;
75837;SDS011;64480;52.040;113.502;2023-04-25T09:50:33;6.07;;;1.73;;
75837;SDS011;64480;52.040;113.502;2023-04-25T09:53:43;26.63;;;3.03;;
75837;SDS011;64480;52.040;113.502;2023-04-25T09:57:18;29.20;;;4.72;;
75837;SDS011;64480;52.040;113.502;2023-04-25T10:00:22;18.17;;;4.32;;
75837;SDS011;64480;52.040;113.502;2023-04-25T10:03:27;12.30;;;2.70;;
75837;SDS011;64480;52.040;113.502;2023-04-25T10:06:50;9.20;;;3.58;;
75837;SDS011;64480;52.040;113.502;2023-04-25T10:10:00;14.02;;;3.88;;
75837;SDS011;64480;52.040;113.502;2023-04-25T10:13:05;28.17;;;4.10;;
75837;SDS011;64480;52.040;113.502;2023-04-25T10:16:10;28.73;;;5.97;;
75837;SDS011;64480;52.040;113.502;2023-04-25T10:19:14;9.15;;;2.20;;
75837;SDS011;64480;52.040;113.502;2023-04-25T10:22:32;14.25;;;2.70;;
75837;SDS011;64480;52.040;113.502;2023-04-25T10:25:40;19.85;;;3.15;;
75837;SDS011;64480;52.040;113.502;2023-04-25T10:29:00;29.05;;;4.57;;
75837;SDS011;64480;52.040;113.502;2023-04-25T10:32:05;15.93;;;3.45;;
75837;SDS011;64480;52.040;113.502;2023-04-25T10:38:19;12.50;;;2.88;;
75837;SDS011;64480;52.040;113.502;2023-04-25T10:41:22;19.45;;;5.90;;
75837;SDS011;64480;52.040;113.502;2023-04-25T10:44:26;18.83;;;4.72;;
75837;SDS011;64480;52.040;113.502;2023-04-25T10:47:43;16.50;;;4.00;;
75837;SDS011;64480;52.040;113.502;2023-04-25T10:50:47;11.38;;;3.83;;
75837;SDS011;64480;52.040;113.502;2023-04-25T10:53:58;16.52;;;3.55;;
75837;SDS011;64480;52.040;113.502;2023-04-25T10:57:06;30.08;;;7.07;;
75837;SDS011;64480;52.040;113.502;2023-04-25T11:00:19;23.73;;;7.32;;
75837;SDS011;64480;52.040;113.502;2023-04-25T11:11:11;19.08;;;4.68;;
75837;SDS011;64480;52.040;113.502;2023-04-25T11:14:15;8.65;;;3.65;;
75837;SDS011;64480;52.040;113.502;2023-04-25T11:17:18;15.70;;;5.00;;
75837;SDS011;64480;52.040;113.502;2023-04-25T11:20:22;21.52;;;6.28;;
75837;SDS011;64480;52.040;113.502;2023-04-25T11:23:29;17.02;;;5.20;;
75837;SDS011;64480;52.040;113.502;2023-04-25T11:26:36;15.57;;;4.30;;
75837;SDS011;64480;52.040;113.502;2023-04-25T11:29:43;14.43;;;5.15;;
75837;SDS011;64480;52.040;113.502;2023-04-25T11:32:49;12.75;;;4.25;;
75837;SDS011;64480;52.040;113.502;2023-04-25T11:35:54;15.30;;;5.47;;
75837;SDS011;64480;52.040;113.502;2023-04-25T11:39:04;21.50;;;5.45;;
75837;SDS011;64480;52.040;113.502;2023-04-25T11:42:08;21.08;;;5.28;;
75837;SDS011;64480;52.040;113.502;2023-04-25T11:45:14;13.68;;;4.20;;
75837;SDS011;64480;52.040;113.502;2023-04-25T11:48:18;18.30;;;7.45;;
75837;SDS011;64480;52.040;113.502;2023-04-25T11:51:27;19.42;;;6.50;;
75837;SDS011;64480;52.040;113.502;2023-04-25T11:57:59;16.13;;;6.60;;
75837;SDS011;64480;52.040;113.502;2023-04-25T12:01:04;21.45;;;6.82;;
75837;SDS011;64480;52.040;113.502;2023-04-25T12:04:21;27.23;;;8.68;;
75837;SDS011;64480;52.040;113.502;2023-04-25T12:07:36;21.33;;;8.52;;
75837;SDS011;64480;52.040;113.502;2023-04-25T12:10:41;27.80;;;7.95;;
75837;SDS011;64480;52.040;113.502;2023-04-25T12:13:46;31.40;;;8.30;;
75837;SDS011;64480;52.040;113.502;2023-04-25T12:16:56;12.90;;;6.20;;
75837;SDS011;64480;52.040;113.502;2023-04-25T12:20:05;18.58;;;5.60;;
75837;SDS011;64480;52.040;113.502;2023-04-25T12:23:12;27.75;;;6.88;;
75837;SDS011;64480;52.040;113.502;2023-04-25T12:26:21;17.35;;;5.18;;
75837;SDS011;64480;52.040;113.502;2023-04-25T12:33:00;15.85;;;3.88;;
75837;SDS011;64480;52.040;113.502;2023-04-25T12:36:09;11.75;;;4.40;;
75837;SDS011;64480;52.040;113.502;2023-04-25T12:39:22;21.73;;;5.43;;
75837;SDS011;64480;52.040;113.502;2023-04-25T12:46:01;37.42;;;12.52;;
75837;SDS011;64480;52.040;113.502;2023-04-25T12:52:33;53.30;;;15.70;;
75837;SDS011;64480;52.040;113.502;2023-04-25T12:55:42;82.50;;;22.15;;
75837;SDS011;64480;52.040;113.502;2023-04-25T12:58:48;50.05;;;16.25;;
75837;SDS011;64480;52.040;113.502;2023-04-25T13:01:52;45.13;;;14.38;;
75837;SDS011;64480;52.040;113.502;2023-04-25T13:08:28;39.17;;;11.85;;
75837;SDS011;64480;52.040;113.502;2023-04-25T13:11:32;73.68;;;23.67;;
75837;SDS011;64480;52.040;113.502;2023-04-25T13:14:35;57.05;;;19.00;;
75837;SDS011;64480;52.040;113.502;2023-04-25T13:21:10;56.15;;;20.73;;
75837;SDS011;64480;52.040;113.502;2023-04-25T13:24:14;51.60;;;19.85;;
75837;SDS011;64480;52.040;113.502;2023-04-25T13:27:18;45.47;;;16.08;;
75837;SDS011;64480;52.040;113.502;2023-04-25T13:34:20;41.55;;;15.70;;
75837;SDS011;64480;52.040;113.502;2023-04-25T13:37:23;62.80;;;17.88;;
75837;SDS011;64480;52.040;113.502;2023-04-25T13:40:26;55.72;;;20.77;;
75837;SDS011;64480;52.040;113.502;2023-04-25T13:43:42;55.17;;;20.05;;
75837;SDS011;64480;52.040;113.502;2023-04-25T13:46:52;58.88;;;20.88;;
75837;SDS011;64480;52.040;113.502;2023-04-25T13:49:55;66.25;;;22.27;;
75837;SDS011;64480;52.040;113.502;2023-04-25T13:52:59;57.90;;;20.73;;
75837;SDS011;64480;52.040;113.502;2023-04-25T13:56:02;63.38;;;24.02;;
75837;SDS011;64480;52.040;113.502;2023-04-25T13:59:07;75.75;;;29.08;;
75837;SDS011;64480;52.040;113.502;2023-04-25T14:02:10;77.97;;;28.73;;
75837;SDS011;64480;52.040;113.502;2023-04-25T14:05:16;74.13;;;27.75;;
75837;SDS011;64480;52.040;113.502;2023-04-25T14:08:19;81.32;;;28.85;;
75837;SDS011;64480;52.040;113.502;2023-04-25T14:11:23;73.38;;;26.05;;
75837;SDS011;64480;52.040;113.502;2023-04-25T14:14:26;70.28;;;27.25;;
75837;SDS011;64480;52.040;113.502;2023-04-25T14:21:00;83.93;;;27.13;;
75837;SDS011;64480;52.040;113.502;2023-04-25T14:24:04;87.50;;;28.80;;
75837;SDS011;64480;52.040;113.502;2023-04-25T14:27:08;62.30;;;26.25;;
75837;SDS011;64480;52.040;113.502;2023-04-25T14:30:11;47.65;;;14.43;;
75837;SDS011;64480;52.040;113.502;2023-04-25T14:33:15;31.90;;;10.43;;
75837;SDS011;64480;52.040;113.502;2023-04-25T14:36:18;42.55;;;13.32;;
75837;SDS011;64480;52.040;113.502;2023-04-25T14:39:22;46.75;;;16.50;;
75837;SDS011;64480;52.040;113.502;2023-04-25T14:42:26;59.10;;;21.10;;
75837;SDS011;64480;52.040;113.502;2023-04-25T14:45:29;44.40;;;14.30;;
75837;SDS011;64480;52.040;113.502;2023-04-25T14:48:32;41.13;;;12.15;;
75837;SDS011;64480;52.040;113.502;2023-04-25T14:55:05;39.55;;;11.35;;
75837;SDS011;64480;52.040;113.502;2023-04-25T15:01:38;49.38;;;12.57;;
75837;SDS011;64480;52.040;113.502;2023-04-25T15:04:44;37.65;;;10.73;;
75837;SDS011;64480;52.040;113.502;2023-04-25T15:07:50;33.60;;;10.50;;
75837;SDS011;64480;52.040;113.502;2023-04-25T15:10:54;26.10;;;8.88;;
75837;SDS011;64480;52.040;113.502;2023-04-25T15:14:01;26.70;;;8.70;;
75837;SDS011;64480;52.040;113.502;2023-04-25T15:17:05;36.97;;;10.63;;
75837;SDS011;64480;52.040;113.502;2023-04-25T15:20:09;31.95;;;10.35;;
75837;SDS011;64480;52.040;113.502;2023-04-25T15:23:13;31.27;;;10.50;;
75837;SDS011;64480;52.040;113.502;2023-04-25T15:26:16;63.58;;;22.40;;
75837;SDS011;64480;52.040;113.502;2023-04-25T15:29:23;38.45;;;12.90;;
75837;SDS011;64480;52.040;113.502;2023-04-25T15:32:31;45.20;;;14.35;;
75837;SDS011;64480;52.040;113.502;2023-04-25T15:35:35;84.45;;;31.33;;
75837;SDS011;64480;52.040;113.502;2023-04-25T15:38:38;101.18;;;36.83;;
75837;SDS011;64480;52.040;113.502;2023-04-25T15:41:42;113.70;;;41.92;;
75837;SDS011;64480;52.040;113.502;2023-04-25T15:44:57;107.50;;;38.03;;
75837;SDS011;64480;52.040;113.502;2023-04-25T15:48:04;108.18;;;38.63;;
75837;SDS011;64480;52.040;113.502;2023-04-25T15:51:07;100.35;;;36.25;;
75837;SDS011;64480;52.040;113.502;2023-04-25T15:54:14;98.13;;;34.95;;
75837;SDS011;64480;52.040;113.502;2023-04-25T15:57:18;103.95;;;35.72;;
75837;SDS011;64480;52.040;113.502;2023-04-25T16:00:25;106.00;;;37.63;;
75837;SDS011;64480;52.040;113.502;2023-04-25T16:03:29;107.13;;;35.25;;
75837;SDS011;64480;52.040;113.502;2023-04-25T16:06:36;107.47;;;36.42;;
75837;SDS011;64480;52.040;113.502;2023-04-25T16:09:44;115.25;;;37.72;;
75837;SDS011;64480;52.040;113.502;2023-04-25T16:12:51;64.57;;;22.67;;
75837;SDS011;64480;52.040;113.502;2023-04-25T16:15:54;60.72;;;22.67;;
75837;SDS011;64480;52.040;113.502;2023-04-25T16:18:57;61.92;;;18.50;;
75837;SDS011;64480;52.040;113.502;2023-04-25T16:22:01;47.45;;;16.92;;
75837;SDS011;64480;52.040;113.502;2023-04-25T16:25:14;99.93;;;32.70;;
75837;SDS011;64480;52.040;113.502;2023-04-25T16:28:18;94.63;;;33.88;;
75837;SDS011;64480;52.040;113.502;2023-04-25T16:31:22;92.22;;;31.10;;
75837;SDS011;64480;52.040;113.502;2023-04-25T16:34:31;101.32;;;37.20;;
75837;SDS011;64480;52.040;113.502;2023-04-25T16:37:35;99.85;;;32.90;;
75837;SDS011;64480;52.040;113.502;2023-04-25T16:40:40;111.03;;;39.00;;
75837;SDS011;64480;52.040;113.502;2023-04-25T16:43:49;85.50;;;28.02;;
75837;SDS011;64480;52.040;113.502;2023-04-25T16:46:53;91.13;;;31.92;;
75837;SDS011;64480;52.040;113.502;2023-04-25T16:50:01;91.50;;;32.72;;
75837;SDS011;64480;52.040;113.502;2023-04-25T16:53:05;90.10;;;30.40;;
75837;SDS011;64480;52.040;113.502;2023-04-25T16:56:11;103.35;;;34.53;;
75837;SDS011;64480;52.040;113.502;2023-04-25T16:59:18;111.05;;;38.45;;
75837;SDS011;64480;52.040;113.502;2023-04-25T17:02:22;96.85;;;35.00;;
75837;SDS011;64480;52.040;113.502;2023-04-25T17:05:25;99.97;;;36.63;;
75837;SDS011;64480;52.040;113.502;2023-04-25T17:08:29;104.50;;;34.35;;
75837;SDS011;64480;52.040;113.502;2023-04-25T17:11:32;95.80;;;34.03;;
75837;SDS011;64480;52.040;113.502;2023-04-25T17:14:36;103.15;;;36.42;;
75837;SDS011;64480;52.040;113.502;2023-04-25T17:17:40;95.55;;;34.67;;
75837;SDS011;64480;52.040;113.502;2023-04-25T17:20:44;63.35;;;21.17;;
75837;SDS011;64480;52.040;113.502;2023-04-25T17:23:47;60.03;;;19.67;;
75837;SDS011;64480;52.040;113.502;2023-04-25T17:26:51;53.70;;;18.13;;
75837;SDS011;64480;52.040;113.502;2023-04-25T17:29:54;51.67;;;20.77;;
75837;SDS011;64480;52.040;113.502;2023-04-25T17:32:58;48.83;;;19.77;;
75837;SDS011;64480;52.040;113.502;2023-04-25T17:36:01;55.92;;;20.52;;
75837;SDS011;64480;52.040;113.502;2023-04-25T17:39:05;53.17;;;20.52;;
75837;SDS011;64480;52.040;113.502;2023-04-25T17:42:12;64.38;;;21.85;;
75837;SDS011;64480;52.040;113.502;2023-04-25T17:45:16;74.55;;;22.83;;
75837;SDS011;64480;52.040;113.502;2023-04-25T17:48:20;69.00;;;25.65;;
75837;SDS011;64480;52.040;113.502;2023-04-25T17:51:27;62.05;;;24.73;;
75837;SDS011;64480;52.040;113.502;2023-04-25T17:54:31;75.07;;;25.80;;
75837;SDS011;64480;52.040;113.502;2023-04-25T17:57:35;69.47;;;26.98;;
75837;SDS011;64480;52.040;113.502;2023-04-25T18:00:39;77.82;;;27.70;;
75837;SDS011;64480;52.040;113.502;2023-04-25T18:03:43;80.40;;;26.30;;
75837;SDS011;64480;52.040;113.502;2023-04-25T18:06:51;68.95;;;26.52;;
75837;SDS011;64480;52.040;113.502;2023-04-25T18:09:55;70.00;;;26.80;;
75837;SDS011;64480;52.040;113.502;2023-04-25T18:12:58;92.05;;;31.80;;
75837;SDS011;64480;52.040;113.502;2023-04-25T18:16:01;97.00;;;35.42;;
75837;SDS011;64480;52.040;113.502;2023-04-25T18:19:06;105.07;;;34.92;;
75837;SDS011;64480;52.040;113.502;2023-04-25T18:22:13;80.57;;;29.45;;
75837;SDS011;64480;52.040;113.502;2023-04-25T18:25:16;92.10;;;34.80;;
75837;SDS011;64480;52.040;113.502;2023-04-25T18:28:19;87.65;;;31.85;;
75837;SDS011;64480;52.040;113.502;2023-04-25T18:31:23;108.90;;;33.03;;
75837;SDS011;64480;52.040;113.502;2023-04-25T18:34:28;95.63;;;33.70;;
75837;SDS011;64480;52.040;113.502;2023-04-25T18:37:31;107.55;;;33.53;;
75837;SDS011;64480;52.040;113.502;2023-04-25T18:40:35;110.05;;;36.33;;
75837;SDS011;64480;52.040;113.502;2023-04-25T18:47:00;77.05;;;24.35;;